sensor_id;sensor_type;location;lat;lon;timestamp;temperature;humidity
33741;DHT22;20065;48.380;10.892;2022-12-29T00:01:55;6.80;99.90
33741;DHT22;20065;48.380;10.892;2022-12-29T00:04:41;6.50;99.90
33741;DHT22;20065;48.380;10.892;2022-12-29T00:07:27;6.40;99.90
33741;DHT22;20065;48.380;10.892;2022-12-29T00:10:13;6.40;99.90
33741;DHT22;20065;48.380;10.892;2022-12-29T00:13:01;6.30;99.90
33741;DHT22;20065;48.380;10.892;2022-12-29T00:16:07;6.40;99.90
33741;DHT22;20065;48.380;10.892;2022-12-29T00:18:56;6.50;99.90
33741;DHT22;20065;48.380;10.892;2022-12-29T00:21:43;6.40;99.90
33741;DHT22;20065;48.380;10.892;2022-12-29T00:24:48;6.50;99.90
33741;DHT22;20065;48.380;10.892;2022-12-29T00:27:52;6.60;99.90
33741;DHT22;20065;48.380;10.892;2022-12-29T00:31:00;6.60;99.90
33741;DHT22;20065;48.380;10.892;2022-12-29T00:34:09;6.60;99.90
33741;DHT22;20065;48.380;10.892;2022-12-29T00:37:14;6.60;99.90
33741;DHT22;20065;48.380;10.892;2022-12-29T00:40:04;6.60;99.90
33741;DHT22;20065;48.380;10.892;2022-12-29T00:43:11;6.60;99.90
33741;DHT22;20065;48.380;10.892;2022-12-29T00:46:16;6.60;99.90
33741;DHT22;20065;48.380;10.892;2022-12-29T00:49:07;6.60;99.90
33741;DHT22;20065;48.380;10.892;2022-12-29T00:52:13;6.60;99.90
33741;DHT22;20065;48.380;10.892;2022-12-29T00:55:02;6.60;99.90
33741;DHT22;20065;48.380;10.892;2022-12-29T00:57:51;6.60;99.90
33741;DHT22;20065;48.380;10.892;2022-12-29T01:00:38;6.50;99.90
33741;DHT22;20065;48.380;10.892;2022-12-29T01:03:24;6.60;99.90
33741;DHT22;20065;48.380;10.892;2022-12-29T01:06:14;6.60;99.90
33741;DHT22;20065;48.380;10.892;2022-12-29T01:09:03;6.60;99.90
33741;DHT22;20065;48.380;10.892;2022-12-29T01:12:11;6.60;99.90
33741;DHT22;20065;48.380;10.892;2022-12-29T01:15:01;6.70;99.90
33741;DHT22;20065;48.380;10.892;2022-12-29T01:17:47;6.70;99.90
33741;DHT22;20065;48.380;10.892;2022-12-29T01:20:36;6.70;99.90
33741;DHT22;20065;48.380;10.892;2022-12-29T01:23:24;6.70;99.90
33741;DHT22;20065;48.380;10.892;2022-12-29T01:26:11;6.70;99.90
33741;DHT22;20065;48.380;10.892;2022-12-29T01:29:07;6.70;99.90
33741;DHT22;20065;48.380;10.892;2022-12-29T01:31:53;6.70;99.90
33741;DHT22;20065;48.380;10.892;2022-12-29T01:34:39;6.70;99.90
33741;DHT22;20065;48.380;10.892;2022-12-29T01:37:26;6.70;99.90
33741;DHT22;20065;48.380;10.892;2022-12-29T01:40:12;6.80;99.90
33741;DHT22;20065;48.380;10.892;2022-12-29T01:42:58;6.80;99.90
33741;DHT22;20065;48.380;10.892;2022-12-29T01:45:49;6.80;99.90
33741;DHT22;20065;48.380;10.892;2022-12-29T01:48:39;6.80;99.90
33741;DHT22;20065;48.380;10.892;2022-12-29T01:51:31;6.90;99.90
33741;DHT22;20065;48.380;10.892;2022-12-29T01:54:29;6.90;99.90
33741;DHT22;20065;48.380;10.892;2022-12-29T01:57:26;6.90;99.90
33741;DHT22;20065;48.380;10.892;2022-12-29T02:00:14;6.90;99.90
33741;DHT22;20065;48.380;10.892;2022-12-29T02:03:00;6.90;99.90
33741;DHT22;20065;48.380;10.892;2022-12-29T02:05:58;6.90;99.90
33741;DHT22;20065;48.380;10.892;2022-12-29T02:08:50;6.90;99.90
33741;DHT22;20065;48.380;10.892;2022-12-29T02:11:38;6.90;99.90
33741;DHT22;20065;48.380;10.892;2022-12-29T02:14:25;6.90;99.90
33741;DHT22;20065;48.380;10.892;2022-12-29T02:17:39;6.90;99.90
33741;DHT22;20065;48.380;10.892;2022-12-29T02:27:26;7.10;99.90
33741;DHT22;20065;48.380;10.892;2022-12-29T02:48:40;7.20;99.90
33741;DHT22;20065;48.380;10.892;2022-12-29T02:51:51;7.10;99.90
33741;DHT22;20065;48.380;10.892;2022-12-29T02:54:40;7.10;99.90
33741;DHT22;20065;48.380;10.892;2022-12-29T02:57:33;7.00;99.90
33741;DHT22;20065;48.380;10.892;2022-12-29T03:00:21;7.00;99.90
33741;DHT22;20065;48.380;10.892;2022-12-29T03:06:28;6.90;99.90
33741;DHT22;20065;48.380;10.892;2022-12-29T03:09:41;6.90;99.90
33741;DHT22;20065;48.380;10.892;2022-12-29T03:12:30;6.90;99.90
33741;DHT22;20065;48.380;10.892;2022-12-29T03:16:24;6.80;99.90
33741;DHT22;20065;48.380;10.892;2022-12-29T03:22:24;6.90;99.90
33741;DHT22;20065;48.380;10.892;2022-12-29T03:25:36;6.90;99.90
33741;DHT22;20065;48.380;10.892;2022-12-29T03:28:39;6.90;99.90
33741;DHT22;20065;48.380;10.892;2022-12-29T03:31:27;7.00;99.90
33741;DHT22;20065;48.380;10.892;2022-12-29T03:34:15;7.00;99.90
33741;DHT22;20065;48.380;10.892;2022-12-29T03:37:12;7.00;99.90
33741;DHT22;20065;48.380;10.892;2022-12-29T03:39:59;7.10;99.90
33741;DHT22;20065;48.380;10.892;2022-12-29T03:42:46;7.20;99.90
33741;DHT22;20065;48.380;10.892;2022-12-29T03:45:33;7.30;99.90
33741;DHT22;20065;48.380;10.892;2022-12-29T03:48:20;7.40;99.90
33741;DHT22;20065;48.380;10.892;2022-12-29T03:51:08;7.50;99.90
33741;DHT22;20065;48.380;10.892;2022-12-29T03:53:54;7.60;99.90
33741;DHT22;20065;48.380;10.892;2022-12-29T03:56:40;7.70;99.90
33741;DHT22;20065;48.380;10.892;2022-12-29T03:59:27;7.70;99.90
33741;DHT22;20065;48.380;10.892;2022-12-29T04:02:13;7.70;99.90
33741;DHT22;20065;48.380;10.892;2022-12-29T04:05:00;7.80;99.90
33741;DHT22;20065;48.380;10.892;2022-12-29T04:07:46;8.00;99.90
33741;DHT22;20065;48.380;10.892;2022-12-29T04:10:33;8.10;99.90
33741;DHT22;20065;48.380;10.892;2022-12-29T04:13:22;8.20;99.90
33741;DHT22;20065;48.380;10.892;2022-12-29T04:16:08;8.20;99.90
33741;DHT22;20065;48.380;10.892;2022-12-29T04:18:57;8.20;99.90
33741;DHT22;20065;48.380;10.892;2022-12-29T04:21:43;8.10;99.90
33741;DHT22;20065;48.380;10.892;2022-12-29T04:24:29;8.20;99.90
33741;DHT22;20065;48.380;10.892;2022-12-29T04:27:15;8.10;99.90
33741;DHT22;20065;48.380;10.892;2022-12-29T04:30:22;8.20;99.90
33741;DHT22;20065;48.380;10.892;2022-12-29T04:33:20;8.30;99.90
33741;DHT22;20065;48.380;10.892;2022-12-29T04:36:07;8.40;99.90
33741;DHT22;20065;48.380;10.892;2022-12-29T04:38:54;8.40;99.90
33741;DHT22;20065;48.380;10.892;2022-12-29T04:41:40;8.50;99.90
33741;DHT22;20065;48.380;10.892;2022-12-29T04:44:30;8.60;99.90
33741;DHT22;20065;48.380;10.892;2022-12-29T04:47:16;8.50;99.90
33741;DHT22;20065;48.380;10.892;2022-12-29T04:50:19;8.50;99.90
33741;DHT22;20065;48.380;10.892;2022-12-29T04:53:37;8.50;99.90
33741;DHT22;20065;48.380;10.892;2022-12-29T04:56:24;8.50;99.90
33741;DHT22;20065;48.380;10.892;2022-12-29T04:59:10;8.60;99.90
33741;DHT22;20065;48.380;10.892;2022-12-29T05:01:56;8.70;99.90
33741;DHT22;20065;48.380;10.892;2022-12-29T05:04:43;8.70;99.90
33741;DHT22;20065;48.380;10.892;2022-12-29T05:07:29;8.70;99.90
33741;DHT22;20065;48.380;10.892;2022-12-29T05:10:16;8.70;99.90
33741;DHT22;20065;48.380;10.892;2022-12-29T05:13:02;8.70;99.90
33741;DHT22;20065;48.380;10.892;2022-12-29T05:15:52;8.70;99.90
33741;DHT22;20065;48.380;10.892;2022-12-29T05:18:39;8.80;99.90
33741;DHT22;20065;48.380;10.892;2022-12-29T05:21:27;8.90;99.90
33741;DHT22;20065;48.380;10.892;2022-12-29T05:24:14;8.90;99.90
33741;DHT22;20065;48.380;10.892;2022-12-29T05:27:01;9.00;99.90
33741;DHT22;20065;48.380;10.892;2022-12-29T05:30:03;9.00;99.90
33741;DHT22;20065;48.380;10.892;2022-12-29T05:32:50;9.10;99.90
33741;DHT22;20065;48.380;10.892;2022-12-29T05:35:37;9.10;99.90
33741;DHT22;20065;48.380;10.892;2022-12-29T05:38:23;9.20;99.90
33741;DHT22;20065;48.380;10.892;2022-12-29T05:41:10;9.10;99.90
33741;DHT22;20065;48.380;10.892;2022-12-29T05:44:19;9.10;99.90
33741;DHT22;20065;48.380;10.892;2022-12-29T05:47:34;9.10;99.90
33741;DHT22;20065;48.380;10.892;2022-12-29T05:50:47;9.10;99.90
33741;DHT22;20065;48.380;10.892;2022-12-29T05:53:35;9.10;99.90
33741;DHT22;20065;48.380;10.892;2022-12-29T05:56:21;9.00;99.90
33741;DHT22;20065;48.380;10.892;2022-12-29T05:59:15;9.00;99.90
33741;DHT22;20065;48.380;10.892;2022-12-29T06:02:01;9.10;99.90
33741;DHT22;20065;48.380;10.892;2022-12-29T06:04:48;9.20;99.90
33741;DHT22;20065;48.380;10.892;2022-12-29T06:07:34;9.30;99.90
33741;DHT22;20065;48.380;10.892;2022-12-29T06:10:20;9.30;99.90
33741;DHT22;20065;48.380;10.892;2022-12-29T06:13:15;9.40;99.90
33741;DHT22;20065;48.380;10.892;2022-12-29T06:16:03;9.50;99.90
33741;DHT22;20065;48.380;10.892;2022-12-29T06:18:50;9.50;99.90
33741;DHT22;20065;48.380;10.892;2022-12-29T06:21:36;9.50;99.90
33741;DHT22;20065;48.380;10.892;2022-12-29T06:24:23;9.50;99.90
33741;DHT22;20065;48.380;10.892;2022-12-29T06:27:09;9.50;99.90
33741;DHT22;20065;48.380;10.892;2022-12-29T06:29:57;9.40;99.90
33741;DHT22;20065;48.380;10.892;2022-12-29T06:32:44;9.30;99.90
33741;DHT22;20065;48.380;10.892;2022-12-29T06:35:31;9.30;99.90
33741;DHT22;20065;48.380;10.892;2022-12-29T06:38:19;9.30;99.90
33741;DHT22;20065;48.380;10.892;2022-12-29T06:41:05;9.30;99.90
33741;DHT22;20065;48.380;10.892;2022-12-29T06:44:29;9.20;99.90
33741;DHT22;20065;48.380;10.892;2022-12-29T06:47:25;9.20;99.90
33741;DHT22;20065;48.380;10.892;2022-12-29T06:50:11;9.20;99.90
33741;DHT22;20065;48.380;10.892;2022-12-29T06:52:57;9.20;99.90
33741;DHT22;20065;48.380;10.892;2022-12-29T06:55:43;9.20;99.90
33741;DHT22;20065;48.380;10.892;2022-12-29T06:58:29;9.20;99.90
33741;DHT22;20065;48.380;10.892;2022-12-29T07:01:15;9.20;99.90
33741;DHT22;20065;48.380;10.892;2022-12-29T07:04:03;9.20;99.90
33741;DHT22;20065;48.380;10.892;2022-12-29T07:06:49;9.20;99.90
33741;DHT22;20065;48.380;10.892;2022-12-29T07:09:35;9.20;99.90
33741;DHT22;20065;48.380;10.892;2022-12-29T07:12:21;9.20;99.90
33741;DHT22;20065;48.380;10.892;2022-12-29T07:15:08;9.20;99.90
33741;DHT22;20065;48.380;10.892;2022-12-29T07:17:54;9.30;99.90
33741;DHT22;20065;48.380;10.892;2022-12-29T07:20:40;9.30;99.90
33741;DHT22;20065;48.380;10.892;2022-12-29T07:23:26;9.40;99.90
33741;DHT22;20065;48.380;10.892;2022-12-29T07:26:14;9.40;99.90
33741;DHT22;20065;48.380;10.892;2022-12-29T07:29:01;9.50;99.90
33741;DHT22;20065;48.380;10.892;2022-12-29T07:31:47;9.50;99.90
33741;DHT22;20065;48.380;10.892;2022-12-29T07:34:33;9.50;99.90
33741;DHT22;20065;48.380;10.892;2022-12-29T07:37:19;9.50;99.90
33741;DHT22;20065;48.380;10.892;2022-12-29T07:40:06;9.50;99.90
33741;DHT22;20065;48.380;10.892;2022-12-29T07:42:53;9.50;99.90
33741;DHT22;20065;48.380;10.892;2022-12-29T07:45:48;9.50;99.90
33741;DHT22;20065;48.380;10.892;2022-12-29T07:48:37;9.60;99.90
33741;DHT22;20065;48.380;10.892;2022-12-29T07:51:23;9.70;99.90
33741;DHT22;20065;48.380;10.892;2022-12-29T07:54:09;9.70;99.90
33741;DHT22;20065;48.380;10.892;2022-12-29T07:56:56;9.70;99.90
33741;DHT22;20065;48.380;10.892;2022-12-29T07:59:43;9.80;99.90
33741;DHT22;20065;48.380;10.892;2022-12-29T08:02:29;9.80;99.90
33741;DHT22;20065;48.380;10.892;2022-12-29T08:05:16;9.80;99.90
33741;DHT22;20065;48.380;10.892;2022-12-29T08:08:02;9.90;99.90
33741;DHT22;20065;48.380;10.892;2022-12-29T08:10:48;9.90;99.90
33741;DHT22;20065;48.380;10.892;2022-12-29T08:13:35;9.90;99.90
33741;DHT22;20065;48.380;10.892;2022-12-29T08:16:21;9.90;99.90
33741;DHT22;20065;48.380;10.892;2022-12-29T08:19:09;10.00;99.90
33741;DHT22;20065;48.380;10.892;2022-12-29T08:21:56;10.10;99.90
33741;DHT22;20065;48.380;10.892;2022-12-29T08:24:42;10.20;99.90
33741;DHT22;20065;48.380;10.892;2022-12-29T08:27:28;10.20;99.90
33741;DHT22;20065;48.380;10.892;2022-12-29T08:30:15;10.20;99.90
33741;DHT22;20065;48.380;10.892;2022-12-29T08:33:02;10.20;99.90
33741;DHT22;20065;48.380;10.892;2022-12-29T08:35:48;10.30;99.90
33741;DHT22;20065;48.380;10.892;2022-12-29T08:38:35;10.50;99.90
33741;DHT22;20065;48.380;10.892;2022-12-29T08:41:21;10.40;99.90
33741;DHT22;20065;48.380;10.892;2022-12-29T08:44:11;10.60;99.90
33741;DHT22;20065;48.380;10.892;2022-12-29T08:46:57;10.90;99.90
33741;DHT22;20065;48.380;10.892;2022-12-29T08:49:43;11.30;99.90
33741;DHT22;20065;48.380;10.892;2022-12-29T08:52:31;11.20;99.90
33741;DHT22;20065;48.380;10.892;2022-12-29T08:55:17;11.00;99.90
33741;DHT22;20065;48.380;10.892;2022-12-29T08:58:03;11.10;99.90
33741;DHT22;20065;48.380;10.892;2022-12-29T09:00:55;11.40;99.90
33741;DHT22;20065;48.380;10.892;2022-12-29T09:03:41;11.20;99.90
33741;DHT22;20065;48.380;10.892;2022-12-29T09:06:28;10.90;99.90
33741;DHT22;20065;48.380;10.892;2022-12-29T09:09:14;10.80;99.90
33741;DHT22;20065;48.380;10.892;2022-12-29T09:12:04;10.80;99.90
33741;DHT22;20065;48.380;10.892;2022-12-29T09:14:50;10.70;99.90
33741;DHT22;20065;48.380;10.892;2022-12-29T09:17:36;10.60;99.90
33741;DHT22;20065;48.380;10.892;2022-12-29T09:20:31;10.60;99.90
33741;DHT22;20065;48.380;10.892;2022-12-29T09:23:18;10.70;99.90
33741;DHT22;20065;48.380;10.892;2022-12-29T09:26:04;10.80;99.90
33741;DHT22;20065;48.380;10.892;2022-12-29T09:28:50;10.70;99.90
33741;DHT22;20065;48.380;10.892;2022-12-29T09:31:36;10.70;99.90
33741;DHT22;20065;48.380;10.892;2022-12-29T09:34:22;10.70;99.90
33741;DHT22;20065;48.380;10.892;2022-12-29T09:37:09;10.70;99.90
33741;DHT22;20065;48.380;10.892;2022-12-29T09:39:55;10.80;99.90
33741;DHT22;20065;48.380;10.892;2022-12-29T09:42:50;10.80;99.90
33741;DHT22;20065;48.380;10.892;2022-12-29T09:45:52;10.80;99.90
33741;DHT22;20065;48.380;10.892;2022-12-29T09:48:45;10.90;99.90
33741;DHT22;20065;48.380;10.892;2022-12-29T09:51:36;10.90;99.90
33741;DHT22;20065;48.380;10.892;2022-12-29T09:57:56;11.00;99.90
33741;DHT22;20065;48.380;10.892;2022-12-29T10:01:05;11.20;99.90
33741;DHT22;20065;48.380;10.892;2022-12-29T10:03:54;11.40;99.90
33741;DHT22;20065;48.380;10.892;2022-12-29T10:07:02;11.50;99.90
33741;DHT22;20065;48.380;10.892;2022-12-29T10:10:18;11.50;99.90
33741;DHT22;20065;48.380;10.892;2022-12-29T10:19:40;11.40;99.90
33741;DHT22;20065;48.380;10.892;2022-12-29T10:25:59;11.50;99.90
33741;DHT22;20065;48.380;10.892;2022-12-29T10:31:48;11.70;99.90
33741;DHT22;20065;48.380;10.892;2022-12-29T10:34:40;11.80;99.90
33741;DHT22;20065;48.380;10.892;2022-12-29T10:37:39;11.90;99.90
33741;DHT22;20065;48.380;10.892;2022-12-29T10:40:36;11.80;99.90
33741;DHT22;20065;48.380;10.892;2022-12-29T10:43:30;11.80;99.90
33741;DHT22;20065;48.380;10.892;2022-12-29T10:46:29;11.90;99.90
33741;DHT22;20065;48.380;10.892;2022-12-29T10:49:18;11.90;99.90
33741;DHT22;20065;48.380;10.892;2022-12-29T10:52:09;11.90;99.90
33741;DHT22;20065;48.380;10.892;2022-12-29T10:55:15;11.90;99.90
33741;DHT22;20065;48.380;10.892;2022-12-29T10:58:06;11.90;99.90
33741;DHT22;20065;48.380;10.892;2022-12-29T11:00:53;12.00;99.90
33741;DHT22;20065;48.380;10.892;2022-12-29T11:06:28;12.00;99.90
33741;DHT22;20065;48.380;10.892;2022-12-29T11:09:23;11.90;99.90
33741;DHT22;20065;48.380;10.892;2022-12-29T11:15:15;11.90;99.90
33741;DHT22;20065;48.380;10.892;2022-12-29T11:18:01;12.00;99.90
33741;DHT22;20065;48.380;10.892;2022-12-29T11:21:03;12.00;99.90
33741;DHT22;20065;48.380;10.892;2022-12-29T11:24:04;12.10;99.90
33741;DHT22;20065;48.380;10.892;2022-12-29T11:27:14;12.10;99.90
33741;DHT22;20065;48.380;10.892;2022-12-29T11:30:01;12.30;99.90
33741;DHT22;20065;48.380;10.892;2022-12-29T11:32:53;12.30;99.90
33741;DHT22;20065;48.380;10.892;2022-12-29T11:35:42;12.40;99.90
33741;DHT22;20065;48.380;10.892;2022-12-29T11:38:40;12.50;99.90
33741;DHT22;20065;48.380;10.892;2022-12-29T11:41:31;12.60;99.90
33741;DHT22;20065;48.380;10.892;2022-12-29T11:44:18;12.60;99.90
33741;DHT22;20065;48.380;10.892;2022-12-29T11:47:19;12.70;99.90
33741;DHT22;20065;48.380;10.892;2022-12-29T11:50:07;12.80;99.90
33741;DHT22;20065;48.380;10.892;2022-12-29T11:53:07;12.80;99.90
33741;DHT22;20065;48.380;10.892;2022-12-29T11:56:03;12.80;99.90
33741;DHT22;20065;48.380;10.892;2022-12-29T11:58:50;12.90;99.90
33741;DHT22;20065;48.380;10.892;2022-12-29T12:01:39;12.80;99.90
33741;DHT22;20065;48.380;10.892;2022-12-29T12:04:30;12.80;99.90
33741;DHT22;20065;48.380;10.892;2022-12-29T12:07:28;13.00;99.90
33741;DHT22;20065;48.380;10.892;2022-12-29T12:10:25;13.00;99.90
33741;DHT22;20065;48.380;10.892;2022-12-29T12:16:43;13.00;99.90
33741;DHT22;20065;48.380;10.892;2022-12-29T12:22:40;12.90;99.90
33741;DHT22;20065;48.380;10.892;2022-12-29T12:25:37;12.90;99.90
33741;DHT22;20065;48.380;10.892;2022-12-29T12:28:46;12.90;99.90
33741;DHT22;20065;48.380;10.892;2022-12-29T12:31:56;12.80;99.90
33741;DHT22;20065;48.380;10.892;2022-12-29T12:34:45;12.70;99.90
33741;DHT22;20065;48.380;10.892;2022-12-29T12:46:50;12.80;99.90
33741;DHT22;20065;48.380;10.892;2022-12-29T13:11:48;12.80;99.90
33741;DHT22;20065;48.380;10.892;2022-12-29T13:17:49;12.80;99.90
33741;DHT22;20065;48.380;10.892;2022-12-29T13:29:32;12.80;99.90
33741;DHT22;20065;48.380;10.892;2022-12-29T13:38:44;12.60;99.90
33741;DHT22;20065;48.380;10.892;2022-12-29T13:41:41;12.60;99.90
33741;DHT22;20065;48.380;10.892;2022-12-29T13:44:46;12.50;99.90
33741;DHT22;20065;48.380;10.892;2022-12-29T13:47:55;12.50;99.90
33741;DHT22;20065;48.380;10.892;2022-12-29T13:50:48;12.40;99.90
33741;DHT22;20065;48.380;10.892;2022-12-29T13:57:08;12.30;99.90
33741;DHT22;20065;48.380;10.892;2022-12-29T14:00:26;12.20;99.90
33741;DHT22;20065;48.380;10.892;2022-12-29T14:06:20;12.30;99.90
33741;DHT22;20065;48.380;10.892;2022-12-29T14:12:40;12.30;99.90
33741;DHT22;20065;48.380;10.892;2022-12-29T14:15:27;12.20;99.90
33741;DHT22;20065;48.380;10.892;2022-12-29T14:18:22;12.10;99.90
33741;DHT22;20065;48.380;10.892;2022-12-29T14:21:23;12.10;99.90
33741;DHT22;20065;48.380;10.892;2022-12-29T14:33:31;12.00;99.90
33741;DHT22;20065;48.380;10.892;2022-12-29T14:42:18;11.90;99.90
33741;DHT22;20065;48.380;10.892;2022-12-29T14:51:34;11.80;99.90
33741;DHT22;20065;48.380;10.892;2022-12-29T15:00:31;11.80;99.90
33741;DHT22;20065;48.380;10.892;2022-12-29T15:03:23;11.70;99.90
33741;DHT22;20065;48.380;10.892;2022-12-29T15:06:11;11.70;99.90
33741;DHT22;20065;48.380;10.892;2022-12-29T15:09:23;11.70;99.90
33741;DHT22;20065;48.380;10.892;2022-12-29T15:12:30;11.60;99.90
33741;DHT22;20065;48.380;10.892;2022-12-29T15:15:25;11.60;99.90
33741;DHT22;20065;48.380;10.892;2022-12-29T15:21:16;11.50;99.90
33741;DHT22;20065;48.380;10.892;2022-12-29T15:24:05;11.40;99.90
33741;DHT22;20065;48.380;10.892;2022-12-29T15:26:53;11.40;99.90
33741;DHT22;20065;48.380;10.892;2022-12-29T15:29:45;11.40;99.90
33741;DHT22;20065;48.380;10.892;2022-12-29T15:32:46;11.30;99.90
33741;DHT22;20065;48.380;10.892;2022-12-29T15:35:35;11.30;99.90
33741;DHT22;20065;48.380;10.892;2022-12-29T15:38:28;11.20;99.90
33741;DHT22;20065;48.380;10.892;2022-12-29T15:47:30;11.20;99.90
33741;DHT22;20065;48.380;10.892;2022-12-29T15:56:10;11.10;99.90
33741;DHT22;20065;48.380;10.892;2022-12-29T15:58:56;11.10;99.90
33741;DHT22;20065;48.380;10.892;2022-12-29T16:01:43;11.20;99.90
33741;DHT22;20065;48.380;10.892;2022-12-29T16:04:30;11.30;99.90
33741;DHT22;20065;48.380;10.892;2022-12-29T16:07:30;11.10;99.90
33741;DHT22;20065;48.380;10.892;2022-12-29T16:10:37;11.10;99.90
33741;DHT22;20065;48.380;10.892;2022-12-29T16:13:35;11.10;99.90
33741;DHT22;20065;48.380;10.892;2022-12-29T16:16:32;11.10;99.90
33741;DHT22;20065;48.380;10.892;2022-12-29T16:19:40;11.20;99.90
33741;DHT22;20065;48.380;10.892;2022-12-29T16:22:34;11.10;99.90
33741;DHT22;20065;48.380;10.892;2022-12-29T16:28:21;11.00;99.90
33741;DHT22;20065;48.380;10.892;2022-12-29T16:31:32;11.00;99.90
33741;DHT22;20065;48.380;10.892;2022-12-29T16:37:33;11.10;99.90
33741;DHT22;20065;48.380;10.892;2022-12-29T16:40:30;11.20;99.90
33741;DHT22;20065;48.380;10.892;2022-12-29T16:43:35;11.20;99.90
33741;DHT22;20065;48.380;10.892;2022-12-29T16:46:30;11.20;99.90
33741;DHT22;20065;48.380;10.892;2022-12-29T16:49:17;11.10;99.90
33741;DHT22;20065;48.380;10.892;2022-12-29T16:55:05;11.00;99.90
33741;DHT22;20065;48.380;10.892;2022-12-29T16:57:53;11.00;99.90
33741;DHT22;20065;48.380;10.892;2022-12-29T17:00:45;11.00;99.90
33741;DHT22;20065;48.380;10.892;2022-12-29T17:03:39;10.90;99.90
33741;DHT22;20065;48.380;10.892;2022-12-29T17:06:37;11.00;99.90
33741;DHT22;20065;48.380;10.892;2022-12-29T17:09:26;10.80;99.90
33741;DHT22;20065;48.380;10.892;2022-12-29T17:12:23;10.80;99.90
33741;DHT22;20065;48.380;10.892;2022-12-29T17:15:25;10.70;99.90
33741;DHT22;20065;48.380;10.892;2022-12-29T17:18:12;10.70;99.90
33741;DHT22;20065;48.380;10.892;2022-12-29T17:20:58;10.70;99.90
33741;DHT22;20065;48.380;10.892;2022-12-29T17:23:44;10.70;99.90
33741;DHT22;20065;48.380;10.892;2022-12-29T17:26:30;10.70;99.90
33741;DHT22;20065;48.380;10.892;2022-12-29T17:29:38;10.70;99.90
33741;DHT22;20065;48.380;10.892;2022-12-29T17:32:26;10.70;99.90
33741;DHT22;20065;48.380;10.892;2022-12-29T17:35:16;10.70;99.90
33741;DHT22;20065;48.380;10.892;2022-12-29T17:38:49;10.70;99.90
33741;DHT22;20065;48.380;10.892;2022-12-29T17:41:13;10.70;99.90
33741;DHT22;20065;48.380;10.892;2022-12-29T17:44:00;10.70;99.90
33741;DHT22;20065;48.380;10.892;2022-12-29T17:46:47;10.70;99.90
33741;DHT22;20065;48.380;10.892;2022-12-29T17:49:34;10.60;99.90
33741;DHT22;20065;48.380;10.892;2022-12-29T17:52:21;10.60;99.90
33741;DHT22;20065;48.380;10.892;2022-12-29T17:55:18;10.50;99.90
33741;DHT22;20065;48.380;10.892;2022-12-29T17:58:28;10.50;99.90
33741;DHT22;20065;48.380;10.892;2022-12-29T18:01:17;10.50;99.90
33741;DHT22;20065;48.380;10.892;2022-12-29T18:04:09;10.50;99.90
33741;DHT22;20065;48.380;10.892;2022-12-29T18:06:56;10.50;99.90
33741;DHT22;20065;48.380;10.892;2022-12-29T18:09:42;10.50;99.90
33741;DHT22;20065;48.380;10.892;2022-12-29T18:12:34;10.50;99.90
33741;DHT22;20065;48.380;10.892;2022-12-29T18:15:25;10.60;99.90
33741;DHT22;20065;48.380;10.892;2022-12-29T18:18:14;10.60;99.90
33741;DHT22;20065;48.380;10.892;2022-12-29T18:21:00;10.60;99.90
33741;DHT22;20065;48.380;10.892;2022-12-29T18:23:47;10.50;99.90
33741;DHT22;20065;48.380;10.892;2022-12-29T18:26:34;10.50;99.90
33741;DHT22;20065;48.380;10.892;2022-12-29T18:29:22;10.50;99.90
33741;DHT22;20065;48.380;10.892;2022-12-29T18:32:11;10.60;99.90
33741;DHT22;20065;48.380;10.892;2022-12-29T18:34:58;10.60;99.90
33741;DHT22;20065;48.380;10.892;2022-12-29T18:37:44;10.60;99.90
33741;DHT22;20065;48.380;10.892;2022-12-29T18:40:31;10.50;99.90
33741;DHT22;20065;48.380;10.892;2022-12-29T18:43:19;10.60;99.90
33741;DHT22;20065;48.380;10.892;2022-12-29T18:46:09;10.50;99.90
33741;DHT22;20065;48.380;10.892;2022-12-29T18:48:57;10.50;99.90
33741;DHT22;20065;48.380;10.892;2022-12-29T18:51:43;10.50;99.90
33741;DHT22;20065;48.380;10.892;2022-12-29T18:54:31;10.50;99.90
33741;DHT22;20065;48.380;10.892;2022-12-29T18:57:17;10.50;99.90
33741;DHT22;20065;48.380;10.892;2022-12-29T19:00:04;10.50;99.90
33741;DHT22;20065;48.380;10.892;2022-12-29T19:02:51;10.40;99.90
33741;DHT22;20065;48.380;10.892;2022-12-29T19:05:39;10.40;99.90
33741;DHT22;20065;48.380;10.892;2022-12-29T19:08:26;10.40;99.90
33741;DHT22;20065;48.380;10.892;2022-12-29T19:11:12;10.40;99.90
33741;DHT22;20065;48.380;10.892;2022-12-29T19:13:58;10.30;99.90
33741;DHT22;20065;48.380;10.892;2022-12-29T19:16:45;10.30;99.90
33741;DHT22;20065;48.380;10.892;2022-12-29T19:19:31;10.30;99.90
33741;DHT22;20065;48.380;10.892;2022-12-29T19:22:17;10.30;99.90
33741;DHT22;20065;48.380;10.892;2022-12-29T19:25:04;10.30;99.90
33741;DHT22;20065;48.380;10.892;2022-12-29T19:27:54;10.20;99.90
33741;DHT22;20065;48.380;10.892;2022-12-29T19:30:43;10.30;99.90
33741;DHT22;20065;48.380;10.892;2022-12-29T19:33:31;10.30;99.90
33741;DHT22;20065;48.380;10.892;2022-12-29T19:36:17;10.20;99.90
33741;DHT22;20065;48.380;10.892;2022-12-29T19:39:07;10.20;99.90
33741;DHT22;20065;48.380;10.892;2022-12-29T19:41:53;10.20;99.90
33741;DHT22;20065;48.380;10.892;2022-12-29T19:44:40;10.10;99.90
33741;DHT22;20065;48.380;10.892;2022-12-29T19:47:32;10.00;99.90
33741;DHT22;20065;48.380;10.892;2022-12-29T19:50:18;10.00;99.90
33741;DHT22;20065;48.380;10.892;2022-12-29T19:53:05;10.00;99.90
33741;DHT22;20065;48.380;10.892;2022-12-29T19:55:52;10.00;99.90
33741;DHT22;20065;48.380;10.892;2022-12-29T19:58:49;10.10;99.90
33741;DHT22;20065;48.380;10.892;2022-12-29T20:01:36;10.10;99.90
33741;DHT22;20065;48.380;10.892;2022-12-29T20:04:22;10.10;99.90
33741;DHT22;20065;48.380;10.892;2022-12-29T20:07:09;10.10;99.90
33741;DHT22;20065;48.380;10.892;2022-12-29T20:09:55;10.20;99.90
33741;DHT22;20065;48.380;10.892;2022-12-29T20:12:41;10.30;99.90
33741;DHT22;20065;48.380;10.892;2022-12-29T20:15:28;10.30;99.90
33741;DHT22;20065;48.380;10.892;2022-12-29T20:18:14;10.40;99.90
33741;DHT22;20065;48.380;10.892;2022-12-29T20:21:02;10.50;99.90
33741;DHT22;20065;48.380;10.892;2022-12-29T20:23:49;10.50;99.90
33741;DHT22;20065;48.380;10.892;2022-12-29T20:26:36;10.40;99.90
33741;DHT22;20065;48.380;10.892;2022-12-29T20:29:22;10.40;99.90
33741;DHT22;20065;48.380;10.892;2022-12-29T20:32:18;10.40;99.90
33741;DHT22;20065;48.380;10.892;2022-12-29T20:35:05;10.40;99.90
33741;DHT22;20065;48.380;10.892;2022-12-29T20:37:51;10.40;99.90
33741;DHT22;20065;48.380;10.892;2022-12-29T20:40:37;10.50;99.90
33741;DHT22;20065;48.380;10.892;2022-12-29T20:43:23;10.40;99.90
33741;DHT22;20065;48.380;10.892;2022-12-29T20:46:11;10.40;99.90